sensor_id;sensor_type;location;lat;lon;timestamp;temperature;humidity
9810;DHT22;4944;52.514;13.192;2023-09-08T00:01:02;23.00;99.90
9810;DHT22;4944;52.514;13.192;2023-09-08T00:03:29;23.00;99.90
9810;DHT22;4944;52.514;13.192;2023-09-08T00:05:56;22.90;99.90
9810;DHT22;4944;52.514;13.192;2023-09-08T00:08:23;22.90;99.90
9810;DHT22;4944;52.514;13.192;2023-09-08T00:10:50;22.80;99.90
9810;DHT22;4944;52.514;13.192;2023-09-08T00:13:18;22.80;99.90
9810;DHT22;4944;52.514;13.192;2023-09-08T00:15:45;22.70;99.90
9810;DHT22;4944;52.514;13.192;2023-09-08T00:18:12;22.70;99.90
9810;DHT22;4944;52.514;13.192;2023-09-08T00:20:39;22.70;99.90
9810;DHT22;4944;52.514;13.192;2023-09-08T00:23:07;22.70;99.90
9810;DHT22;4944;52.514;13.192;2023-09-08T00:25:34;22.70;99.90
9810;DHT22;4944;52.514;13.192;2023-09-08T00:28:01;22.70;99.90
9810;DHT22;4944;52.514;13.192;2023-09-08T00:30:30;22.70;99.90
9810;DHT22;4944;52.514;13.192;2023-09-08T00:32:57;22.60;99.90
9810;DHT22;4944;52.514;13.192;2023-09-08T00:35:24;22.60;99.90
9810;DHT22;4944;52.514;13.192;2023-09-08T00:37:50;22.60;99.90
9810;DHT22;4944;52.514;13.192;2023-09-08T00:40:18;22.50;99.90
9810;DHT22;4944;52.514;13.192;2023-09-08T00:42:44;22.50;99.90
9810;DHT22;4944;52.514;13.192;2023-09-08T00:45:12;22.50;99.90
9810;DHT22;4944;52.514;13.192;2023-09-08T00:47:40;22.50;99.90
9810;DHT22;4944;52.514;13.192;2023-09-08T00:50:08;22.40;99.90
9810;DHT22;4944;52.514;13.192;2023-09-08T00:52:35;22.40;99.90
9810;DHT22;4944;52.514;13.192;2023-09-08T00:55:02;22.30;99.90
9810;DHT22;4944;52.514;13.192;2023-09-08T00:57:30;22.30;99.90
9810;DHT22;4944;52.514;13.192;2023-09-08T00:59:57;22.30;99.90
9810;DHT22;4944;52.514;13.192;2023-09-08T01:02:25;22.30;99.90
9810;DHT22;4944;52.514;13.192;2023-09-08T01:04:53;22.20;99.90
9810;DHT22;4944;52.514;13.192;2023-09-08T01:07:21;22.20;99.90
9810;DHT22;4944;52.514;13.192;2023-09-08T01:09:48;22.20;99.90
9810;DHT22;4944;52.514;13.192;2023-09-08T01:12:15;22.10;99.90
9810;DHT22;4944;52.514;13.192;2023-09-08T01:14:42;22.10;99.90
9810;DHT22;4944;52.514;13.192;2023-09-08T01:17:09;22.00;99.90
9810;DHT22;4944;52.514;13.192;2023-09-08T01:19:38;22.00;99.90
9810;DHT22;4944;52.514;13.192;2023-09-08T01:25:41;21.80;99.90
9810;DHT22;4944;52.514;13.192;2023-09-08T01:28:12;21.80;99.90
9810;DHT22;4944;52.514;13.192;2023-09-08T01:30:39;21.70;99.90
9810;DHT22;4944;52.514;13.192;2023-09-08T01:33:06;21.70;99.90
9810;DHT22;4944;52.514;13.192;2023-09-08T01:35:34;21.70;99.90
9810;DHT22;4944;52.514;13.192;2023-09-08T01:38:02;21.60;99.90
9810;DHT22;4944;52.514;13.192;2023-09-08T01:40:28;21.60;99.90
9810;DHT22;4944;52.514;13.192;2023-09-08T01:42:57;21.60;99.90
9810;DHT22;4944;52.514;13.192;2023-09-08T01:45:24;21.50;99.90
9810;DHT22;4944;52.514;13.192;2023-09-08T01:47:50;21.50;99.90
9810;DHT22;4944;52.514;13.192;2023-09-08T01:50:17;21.50;99.90
9810;DHT22;4944;52.514;13.192;2023-09-08T01:52:47;21.50;99.90
9810;DHT22;4944;52.514;13.192;2023-09-08T01:55:14;21.40;99.90
9810;DHT22;4944;52.514;13.192;2023-09-08T01:57:41;21.40;99.90
9810;DHT22;4944;52.514;13.192;2023-09-08T02:00:11;21.30;99.90
9810;DHT22;4944;52.514;13.192;2023-09-08T02:02:38;21.30;99.90
9810;DHT22;4944;52.514;13.192;2023-09-08T02:05:06;21.30;99.90
9810;DHT22;4944;52.514;13.192;2023-09-08T02:07:33;21.30;99.90
9810;DHT22;4944;52.514;13.192;2023-09-08T02:10:00;21.30;99.90
9810;DHT22;4944;52.514;13.192;2023-09-08T02:12:27;21.20;99.90
9810;DHT22;4944;52.514;13.192;2023-09-08T02:14:54;21.20;99.90
9810;DHT22;4944;52.514;13.192;2023-09-08T02:17:22;21.20;99.90
9810;DHT22;4944;52.514;13.192;2023-09-08T02:19:49;21.20;99.90
9810;DHT22;4944;52.514;13.192;2023-09-08T02:22:16;21.20;99.90
9810;DHT22;4944;52.514;13.192;2023-09-08T02:24:43;21.30;99.90
9810;DHT22;4944;52.514;13.192;2023-09-08T02:27:10;21.30;99.90
9810;DHT22;4944;52.514;13.192;2023-09-08T02:29:37;21.40;99.90
9810;DHT22;4944;52.514;13.192;2023-09-08T02:32:04;21.40;99.90
9810;DHT22;4944;52.514;13.192;2023-09-08T02:34:35;21.40;99.90
9810;DHT22;4944;52.514;13.192;2023-09-08T02:37:03;21.40;99.90
9810;DHT22;4944;52.514;13.192;2023-09-08T02:39:32;21.50;99.90
9810;DHT22;4944;52.514;13.192;2023-09-08T02:41:59;21.50;99.90
9810;DHT22;4944;52.514;13.192;2023-09-08T02:44:26;21.50;99.90
9810;DHT22;4944;52.514;13.192;2023-09-08T02:46:53;21.50;99.90
9810;DHT22;4944;52.514;13.192;2023-09-08T02:49:20;21.50;99.90
9810;DHT22;4944;52.514;13.192;2023-09-08T02:51:48;21.50;99.90
9810;DHT22;4944;52.514;13.192;2023-09-08T02:54:15;21.50;99.90
9810;DHT22;4944;52.514;13.192;2023-09-08T02:56:42;21.50;99.90
9810;DHT22;4944;52.514;13.192;2023-09-08T02:59:09;21.50;99.90
9810;DHT22;4944;52.514;13.192;2023-09-08T03:01:36;21.50;99.90
9810;DHT22;4944;52.514;13.192;2023-09-08T03:04:03;21.60;99.90
9810;DHT22;4944;52.514;13.192;2023-09-08T03:06:30;21.60;99.90
9810;DHT22;4944;52.514;13.192;2023-09-08T03:09:01;21.50;99.90
9810;DHT22;4944;52.514;13.192;2023-09-08T03:11:28;21.50;99.90
9810;DHT22;4944;52.514;13.192;2023-09-08T03:13:55;21.50;99.90
9810;DHT22;4944;52.514;13.192;2023-09-08T03:16:22;21.50;99.90
9810;DHT22;4944;52.514;13.192;2023-09-08T03:18:49;21.50;99.90
9810;DHT22;4944;52.514;13.192;2023-09-08T03:21:16;21.40;99.90
9810;DHT22;4944;52.514;13.192;2023-09-08T03:23:43;21.40;99.90
9810;DHT22;4944;52.514;13.192;2023-09-08T03:26:12;21.40;99.90
9810;DHT22;4944;52.514;13.192;2023-09-08T03:28:42;21.40;99.90
9810;DHT22;4944;52.514;13.192;2023-09-08T03:31:09;21.40;99.90
9810;DHT22;4944;52.514;13.192;2023-09-08T03:33:35;21.40;99.90
9810;DHT22;4944;52.514;13.192;2023-09-08T03:36:03;21.40;99.90
9810;DHT22;4944;52.514;13.192;2023-09-08T03:38:30;21.30;99.90
9810;DHT22;4944;52.514;13.192;2023-09-08T03:40:57;21.40;99.90
9810;DHT22;4944;52.514;13.192;2023-09-08T03:43:25;21.40;99.90
9810;DHT22;4944;52.514;13.192;2023-09-08T03:45:52;21.30;99.90
9810;DHT22;4944;52.514;13.192;2023-09-08T03:48:19;21.30;99.90
9810;DHT22;4944;52.514;13.192;2023-09-08T03:50:45;21.20;99.90
9810;DHT22;4944;52.514;13.192;2023-09-08T03:53:12;21.30;99.90
9810;DHT22;4944;52.514;13.192;2023-09-08T03:55:39;21.20;99.90
9810;DHT22;4944;52.514;13.192;2023-09-08T03:58:06;21.20;99.90
9810;DHT22;4944;52.514;13.192;2023-09-08T04:00:35;21.10;99.90
9810;DHT22;4944;52.514;13.192;2023-09-08T04:03:02;21.10;99.90
9810;DHT22;4944;52.514;13.192;2023-09-08T04:05:29;21.10;99.90
9810;DHT22;4944;52.514;13.192;2023-09-08T04:07:56;21.10;99.90
9810;DHT22;4944;52.514;13.192;2023-09-08T04:10:23;21.10;99.90
9810;DHT22;4944;52.514;13.192;2023-09-08T04:12:50;21.00;99.90
9810;DHT22;4944;52.514;13.192;2023-09-08T04:15:17;21.00;99.90
9810;DHT22;4944;52.514;13.192;2023-09-08T04:17:45;21.00;99.90
9810;DHT22;4944;52.514;13.192;2023-09-08T04:20:12;21.00;99.90
9810;DHT22;4944;52.514;13.192;2023-09-08T04:22:41;20.90;99.90
9810;DHT22;4944;52.514;13.192;2023-09-08T04:25:08;21.00;99.90
9810;DHT22;4944;52.514;13.192;2023-09-08T04:27:35;20.90;99.90
9810;DHT22;4944;52.514;13.192;2023-09-08T04:30:03;20.90;99.90
9810;DHT22;4944;52.514;13.192;2023-09-08T04:32:29;20.80;99.90
9810;DHT22;4944;52.514;13.192;2023-09-08T04:34:58;20.80;99.90
9810;DHT22;4944;52.514;13.192;2023-09-08T04:37:25;20.80;99.90
9810;DHT22;4944;52.514;13.192;2023-09-08T04:39:51;20.80;99.90
9810;DHT22;4944;52.514;13.192;2023-09-08T04:42:18;20.80;99.90
9810;DHT22;4944;52.514;13.192;2023-09-08T04:44:45;20.80;99.90
9810;DHT22;4944;52.514;13.192;2023-09-08T04:47:12;20.80;99.90
9810;DHT22;4944;52.514;13.192;2023-09-08T04:49:39;20.80;99.90
9810;DHT22;4944;52.514;13.192;2023-09-08T04:52:08;20.80;99.90
9810;DHT22;4944;52.514;13.192;2023-09-08T04:54:36;20.70;99.90
9810;DHT22;4944;52.514;13.192;2023-09-08T04:57:04;20.70;99.90
9810;DHT22;4944;52.514;13.192;2023-09-08T04:59:30;20.70;99.90
9810;DHT22;4944;52.514;13.192;2023-09-08T05:01:58;20.70;99.90
9810;DHT22;4944;52.514;13.192;2023-09-08T05:04:25;20.70;99.90
9810;DHT22;4944;52.514;13.192;2023-09-08T05:06:52;20.70;99.90
9810;DHT22;4944;52.514;13.192;2023-09-08T05:09:20;20.70;99.90
9810;DHT22;4944;52.514;13.192;2023-09-08T05:11:47;20.70;99.90
9810;DHT22;4944;52.514;13.192;2023-09-08T05:14:14;20.70;99.90
9810;DHT22;4944;52.514;13.192;2023-09-08T05:16:40;20.70;99.90
9810;DHT22;4944;52.514;13.192;2023-09-08T05:19:12;20.70;99.90
9810;DHT22;4944;52.514;13.192;2023-09-08T05:21:39;20.70;99.90
9810;DHT22;4944;52.514;13.192;2023-09-08T05:24:07;20.80;99.90
9810;DHT22;4944;52.514;13.192;2023-09-08T05:26:37;20.80;99.90
9810;DHT22;4944;52.514;13.192;2023-09-08T05:29:04;20.80;99.90
9810;DHT22;4944;52.514;13.192;2023-09-08T05:31:31;20.80;99.90
9810;DHT22;4944;52.514;13.192;2023-09-08T05:33:58;20.80;99.90
9810;DHT22;4944;52.514;13.192;2023-09-08T05:36:25;20.80;99.90
9810;DHT22;4944;52.514;13.192;2023-09-08T05:38:52;20.80;99.90
9810;DHT22;4944;52.514;13.192;2023-09-08T05:41:19;20.80;99.90
9810;DHT22;4944;52.514;13.192;2023-09-08T05:43:47;20.80;99.90
9810;DHT22;4944;52.514;13.192;2023-09-08T05:46:14;20.80;99.90
9810;DHT22;4944;52.514;13.192;2023-09-08T05:48:41;20.80;99.90
9810;DHT22;4944;52.514;13.192;2023-09-08T05:51:09;20.80;99.90
9810;DHT22;4944;52.514;13.192;2023-09-08T05:53:36;20.80;99.90
9810;DHT22;4944;52.514;13.192;2023-09-08T05:56:05;20.80;99.90
9810;DHT22;4944;52.514;13.192;2023-09-08T05:58:32;20.80;99.90
9810;DHT22;4944;52.514;13.192;2023-09-08T06:01:01;20.90;99.90
9810;DHT22;4944;52.514;13.192;2023-09-08T06:03:28;20.90;99.90
9810;DHT22;4944;52.514;13.192;2023-09-08T06:05:55;20.90;99.90
9810;DHT22;4944;52.514;13.192;2023-09-08T06:08:22;20.90;99.90
9810;DHT22;4944;52.514;13.192;2023-09-08T06:10:50;20.90;99.90
9810;DHT22;4944;52.514;13.192;2023-09-08T06:13:17;20.90;99.90
9810;DHT22;4944;52.514;13.192;2023-09-08T06:15:43;20.90;99.90
9810;DHT22;4944;52.514;13.192;2023-09-08T06:18:12;20.90;99.90
9810;DHT22;4944;52.514;13.192;2023-09-08T06:20:44;21.00;99.90
9810;DHT22;4944;52.514;13.192;2023-09-08T06:23:11;21.00;99.90
9810;DHT22;4944;52.514;13.192;2023-09-08T06:25:38;21.00;99.90
9810;DHT22;4944;52.514;13.192;2023-09-08T06:28:05;21.00;99.90
9810;DHT22;4944;52.514;13.192;2023-09-08T06:30:32;21.00;99.90
9810;DHT22;4944;52.514;13.192;2023-09-08T06:32:59;21.00;99.90
9810;DHT22;4944;52.514;13.192;2023-09-08T06:35:27;21.10;99.90
9810;DHT22;4944;52.514;13.192;2023-09-08T06:37:54;21.10;99.90
9810;DHT22;4944;52.514;13.192;2023-09-08T06:40:23;21.20;99.90
9810;DHT22;4944;52.514;13.192;2023-09-08T06:42:50;21.20;99.90
9810;DHT22;4944;52.514;13.192;2023-09-08T06:45:17;21.30;99.90
9810;DHT22;4944;52.514;13.192;2023-09-08T06:47:44;21.30;99.90
9810;DHT22;4944;52.514;13.192;2023-09-08T06:50:11;21.40;99.90
9810;DHT22;4944;52.514;13.192;2023-09-08T06:52:39;21.40;99.90
9810;DHT22;4944;52.514;13.192;2023-09-08T06:55:06;21.40;99.90
9810;DHT22;4944;52.514;13.192;2023-09-08T06:57:35;21.50;99.90
9810;DHT22;4944;52.514;13.192;2023-09-08T07:00:02;21.50;99.90
9810;DHT22;4944;52.514;13.192;2023-09-08T07:02:33;21.60;99.90
9810;DHT22;4944;52.514;13.192;2023-09-08T07:05:00;21.50;99.90
9810;DHT22;4944;52.514;13.192;2023-09-08T07:07:32;21.60;99.90
9810;DHT22;4944;52.514;13.192;2023-09-08T07:10:00;21.60;99.90
9810;DHT22;4944;52.514;13.192;2023-09-08T07:12:27;21.70;99.90
9810;DHT22;4944;52.514;13.192;2023-09-08T07:14:54;21.70;99.90
9810;DHT22;4944;52.514;13.192;2023-09-08T07:17:21;21.80;99.90
9810;DHT22;4944;52.514;13.192;2023-09-08T07:19:48;21.80;99.90
9810;DHT22;4944;52.514;13.192;2023-09-08T07:22:15;21.90;99.90
9810;DHT22;4944;52.514;13.192;2023-09-08T07:24:42;21.90;99.90
9810;DHT22;4944;52.514;13.192;2023-09-08T07:27:11;22.00;99.90
9810;DHT22;4944;52.514;13.192;2023-09-08T07:29:39;22.10;99.90
9810;DHT22;4944;52.514;13.192;2023-09-08T07:32:06;22.20;99.90
9810;DHT22;4944;52.514;13.192;2023-09-08T07:34:33;22.20;99.90
9810;DHT22;4944;52.514;13.192;2023-09-08T07:37:01;22.30;99.90
9810;DHT22;4944;52.514;13.192;2023-09-08T07:39:28;22.40;99.90
9810;DHT22;4944;52.514;13.192;2023-09-08T07:41:55;22.40;99.90
9810;DHT22;4944;52.514;13.192;2023-09-08T07:44:24;22.50;99.90
9810;DHT22;4944;52.514;13.192;2023-09-08T07:46:51;22.60;99.90
9810;DHT22;4944;52.514;13.192;2023-09-08T07:49:18;22.60;99.90
9810;DHT22;4944;52.514;13.192;2023-09-08T07:51:46;22.70;99.90
9810;DHT22;4944;52.514;13.192;2023-09-08T07:54:13;22.80;99.90
9810;DHT22;4944;52.514;13.192;2023-09-08T07:56:40;22.80;99.90
9810;DHT22;4944;52.514;13.192;2023-09-08T07:59:07;22.90;99.90
9810;DHT22;4944;52.514;13.192;2023-09-08T08:01:35;22.90;99.90
9810;DHT22;4944;52.514;13.192;2023-09-08T08:04:02;23.00;99.90
9810;DHT22;4944;52.514;13.192;2023-09-08T08:06:30;23.10;99.90
9810;DHT22;4944;52.514;13.192;2023-09-08T08:08:56;23.10;99.90
9810;DHT22;4944;52.514;13.192;2023-09-08T08:11:23;23.20;99.90
9810;DHT22;4944;52.514;13.192;2023-09-08T08:13:51;23.20;99.90
9810;DHT22;4944;52.514;13.192;2023-09-08T08:16:18;23.30;99.90
9810;DHT22;4944;52.514;13.192;2023-09-08T08:18:48;23.40;99.90
9810;DHT22;4944;52.514;13.192;2023-09-08T08:21:15;23.40;99.90
9810;DHT22;4944;52.514;13.192;2023-09-08T08:23:42;23.50;99.90
9810;DHT22;4944;52.514;13.192;2023-09-08T08:26:09;23.60;99.90
9810;DHT22;4944;52.514;13.192;2023-09-08T08:28:36;23.60;99.90
9810;DHT22;4944;52.514;13.192;2023-09-08T08:31:03;23.70;99.90
9810;DHT22;4944;52.514;13.192;2023-09-08T08:33:30;23.70;99.90
9810;DHT22;4944;52.514;13.192;2023-09-08T08:35:58;23.80;99.90
9810;DHT22;4944;52.514;13.192;2023-09-08T08:38:25;23.90;99.90
9810;DHT22;4944;52.514;13.192;2023-09-08T08:40:52;23.90;99.90
9810;DHT22;4944;52.514;13.192;2023-09-08T08:43:21;24.00;99.90
9810;DHT22;4944;52.514;13.192;2023-09-08T08:45:48;24.00;99.90
9810;DHT22;4944;52.514;13.192;2023-09-08T08:48:18;24.10;99.90
9810;DHT22;4944;52.514;13.192;2023-09-08T08:50:47;24.20;99.90
9810;DHT22;4944;52.514;13.192;2023-09-08T08:53:16;24.20;99.90
9810;DHT22;4944;52.514;13.192;2023-09-08T08:55:44;24.30;99.90
9810;DHT22;4944;52.514;13.192;2023-09-08T08:58:12;24.30;99.90
9810;DHT22;4944;52.514;13.192;2023-09-08T09:00:41;24.40;99.90
9810;DHT22;4944;52.514;13.192;2023-09-08T09:03:09;24.40;99.90
9810;DHT22;4944;52.514;13.192;2023-09-08T09:05:37;24.50;99.90
9810;DHT22;4944;52.514;13.192;2023-09-08T09:08:05;24.60;99.90
9810;DHT22;4944;52.514;13.192;2023-09-08T09:10:34;24.60;99.90
9810;DHT22;4944;52.514;13.192;2023-09-08T09:13:00;24.70;99.90
9810;DHT22;4944;52.514;13.192;2023-09-08T09:15:29;24.80;99.90
9810;DHT22;4944;52.514;13.192;2023-09-08T09:18:03;24.80;99.90
9810;DHT22;4944;52.514;13.192;2023-09-08T09:20:31;24.90;99.90
9810;DHT22;4944;52.514;13.192;2023-09-08T09:22:58;25.00;99.90
9810;DHT22;4944;52.514;13.192;2023-09-08T09:25:27;25.10;99.90
9810;DHT22;4944;52.514;13.192;2023-09-08T09:27:57;25.10;99.90
9810;DHT22;4944;52.514;13.192;2023-09-08T09:30:25;25.20;99.90
9810;DHT22;4944;52.514;13.192;2023-09-08T09:32:59;25.30;99.90
9810;DHT22;4944;52.514;13.192;2023-09-08T09:35:40;25.30;99.90
9810;DHT22;4944;52.514;13.192;2023-09-08T09:38:07;25.40;99.90
9810;DHT22;4944;52.514;13.192;2023-09-08T09:40:35;25.40;99.90
9810;DHT22;4944;52.514;13.192;2023-09-08T09:43:04;25.50;99.90
9810;DHT22;4944;52.514;13.192;2023-09-08T09:45:31;25.60;99.90
9810;DHT22;4944;52.514;13.192;2023-09-08T09:47:59;25.60;99.90
9810;DHT22;4944;52.514;13.192;2023-09-08T09:50:29;25.70;99.90
9810;DHT22;4944;52.514;13.192;2023-09-08T09:52:57;25.80;99.90
9810;DHT22;4944;52.514;13.192;2023-09-08T09:55:25;25.90;99.90
9810;DHT22;4944;52.514;13.192;2023-09-08T09:57:57;26.00;99.90
9810;DHT22;4944;52.514;13.192;2023-09-08T10:00:27;26.10;99.90
9810;DHT22;4944;52.514;13.192;2023-09-08T10:02:55;26.10;99.90
9810;DHT22;4944;52.514;13.192;2023-09-08T10:05:23;26.30;99.90
9810;DHT22;4944;52.514;13.192;2023-09-08T10:07:51;26.30;99.90
9810;DHT22;4944;52.514;13.192;2023-09-08T10:10:19;26.50;99.90
9810;DHT22;4944;52.514;13.192;2023-09-08T10:12:51;26.50;99.90
9810;DHT22;4944;52.514;13.192;2023-09-08T10:15:21;26.60;99.90
9810;DHT22;4944;52.514;13.192;2023-09-08T10:17:53;26.70;99.90
9810;DHT22;4944;52.514;13.192;2023-09-08T10:20:22;26.90;99.90
9810;DHT22;4944;52.514;13.192;2023-09-08T10:22:54;26.90;99.90
9810;DHT22;4944;52.514;13.192;2023-09-08T10:25:25;26.90;99.90
9810;DHT22;4944;52.514;13.192;2023-09-08T10:27:55;27.00;99.90
9810;DHT22;4944;52.514;13.192;2023-09-08T10:30:23;27.00;99.90
9810;DHT22;4944;52.514;13.192;2023-09-08T10:32:51;27.20;99.90
9810;DHT22;4944;52.514;13.192;2023-09-08T10:35:19;27.30;99.90
9810;DHT22;4944;52.514;13.192;2023-09-08T10:37:46;27.40;99.90
9810;DHT22;4944;52.514;13.192;2023-09-08T10:40:23;27.50;99.90
9810;DHT22;4944;52.514;13.192;2023-09-08T10:43:06;27.70;99.90
9810;DHT22;4944;52.514;13.192;2023-09-08T10:45:33;27.80;99.40
9810;DHT22;4944;52.514;13.192;2023-09-08T10:48:02;27.90;98.90
9810;DHT22;4944;52.514;13.192;2023-09-08T10:50:33;28.00;98.90
9810;DHT22;4944;52.514;13.192;2023-09-08T10:53:07;28.10;98.80
9810;DHT22;4944;52.514;13.192;2023-09-08T10:55:36;28.30;98.60
9810;DHT22;4944;52.514;13.192;2023-09-08T10:58:04;28.30;98.60
9810;DHT22;4944;52.514;13.192;2023-09-08T11:00:43;28.40;98.60
9810;DHT22;4944;52.514;13.192;2023-09-08T11:03:12;28.50;98.70
9810;DHT22;4944;52.514;13.192;2023-09-08T11:05:41;28.60;97.80
9810;DHT22;4944;52.514;13.192;2023-09-08T11:08:09;28.70;98.10
9810;DHT22;4944;52.514;13.192;2023-09-08T11:10:37;28.90;97.60
9810;DHT22;4944;52.514;13.192;2023-09-08T11:13:06;28.90;97.60
9810;DHT22;4944;52.514;13.192;2023-09-08T11:15:33;28.90;97.20
9810;DHT22;4944;52.514;13.192;2023-09-08T11:18:05;28.90;97.30
9810;DHT22;4944;52.514;13.192;2023-09-08T11:20:34;29.00;97.10
9810;DHT22;4944;52.514;13.192;2023-09-08T11:23:02;29.10;97.10
9810;DHT22;4944;52.514;13.192;2023-09-08T11:25:32;29.20;96.20
9810;DHT22;4944;52.514;13.192;2023-09-08T11:28:00;29.30;96.50
9810;DHT22;4944;52.514;13.192;2023-09-08T11:30:29;29.40;96.20
9810;DHT22;4944;52.514;13.192;2023-09-08T11:32:56;29.60;95.60
9810;DHT22;4944;52.514;13.192;2023-09-08T11:35:26;29.60;95.10
9810;DHT22;4944;52.514;13.192;2023-09-08T11:37:59;29.70;94.80
9810;DHT22;4944;52.514;13.192;2023-09-08T11:40:27;29.80;95.20
9810;DHT22;4944;52.514;13.192;2023-09-08T11:42:54;29.80;95.30
9810;DHT22;4944;52.514;13.192;2023-09-08T11:45:21;29.90;95.10
9810;DHT22;4944;52.514;13.192;2023-09-08T11:47:49;30.00;94.70
9810;DHT22;4944;52.514;13.192;2023-09-08T11:50:18;30.00;94.90
9810;DHT22;4944;52.514;13.192;2023-09-08T11:52:46;30.20;94.80
9810;DHT22;4944;52.514;13.192;2023-09-08T11:55:15;30.30;95.20
9810;DHT22;4944;52.514;13.192;2023-09-08T11:57:46;30.40;95.20
9810;DHT22;4944;52.514;13.192;2023-09-08T12:00:13;30.40;94.30
9810;DHT22;4944;52.514;13.192;2023-09-08T12:02:43;30.50;94.10
9810;DHT22;4944;52.514;13.192;2023-09-08T12:05:14;30.60;93.50
9810;DHT22;4944;52.514;13.192;2023-09-08T12:07:47;30.70;93.60
9810;DHT22;4944;52.514;13.192;2023-09-08T12:10:15;30.80;93.90
9810;DHT22;4944;52.514;13.192;2023-09-08T12:12:44;30.90;93.70
9810;DHT22;4944;52.514;13.192;2023-09-08T12:15:11;31.00;93.50
9810;DHT22;4944;52.514;13.192;2023-09-08T12:17:48;31.20;93.80
9810;DHT22;4944;52.514;13.192;2023-09-08T12:20:16;31.20;93.00
9810;DHT22;4944;52.514;13.192;2023-09-08T12:22:48;31.30;93.00
9810;DHT22;4944;52.514;13.192;2023-09-08T12:25:17;31.50;92.80
9810;DHT22;4944;52.514;13.192;2023-09-08T12:27:45;31.50;93.10
9810;DHT22;4944;52.514;13.192;2023-09-08T12:30:17;31.60;92.60
9810;DHT22;4944;52.514;13.192;2023-09-08T12:32:46;31.70;92.20
9810;DHT22;4944;52.514;13.192;2023-09-08T12:35:19;31.80;92.10
9810;DHT22;4944;52.514;13.192;2023-09-08T12:37:49;31.90;91.90
9810;DHT22;4944;52.514;13.192;2023-09-08T12:40:20;32.00;91.00
9810;DHT22;4944;52.514;13.192;2023-09-08T12:42:46;32.00;91.30
9810;DHT22;4944;52.514;13.192;2023-09-08T12:45:14;32.00;91.20
9810;DHT22;4944;52.514;13.192;2023-09-08T12:47:40;32.20;91.10
9810;DHT22;4944;52.514;13.192;2023-09-08T12:50:08;32.20;91.10
9810;DHT22;4944;52.514;13.192;2023-09-08T12:52:35;32.20;91.10
9810;DHT22;4944;52.514;13.192;2023-09-08T12:55:02;32.30;91.60
9810;DHT22;4944;52.514;13.192;2023-09-08T12:57:30;32.30;91.60
9810;DHT22;4944;52.514;13.192;2023-09-08T12:59:57;32.50;91.30
9810;DHT22;4944;52.514;13.192;2023-09-08T13:02:24;32.50;91.30
9810;DHT22;4944;52.514;13.192;2023-09-08T13:04:52;32.60;91.50
9810;DHT22;4944;52.514;13.192;2023-09-08T13:07:21;32.70;91.30
9810;DHT22;4944;52.514;13.192;2023-09-08T13:09:47;32.70;91.30
9810;DHT22;4944;52.514;13.192;2023-09-08T13:12:19;32.80;91.00
9810;DHT22;4944;52.514;13.192;2023-09-08T13:14:47;32.90;90.80
9810;DHT22;4944;52.514;13.192;2023-09-08T13:17:14;32.90;90.70
9810;DHT22;4944;52.514;13.192;2023-09-08T13:19:41;33.10;90.70
9810;DHT22;4944;52.514;13.192;2023-09-08T13:22:08;33.20;89.90
9810;DHT22;4944;52.514;13.192;2023-09-08T13:24:36;33.20;90.00
9810;DHT22;4944;52.514;13.192;2023-09-08T13:27:03;33.30;89.70
9810;DHT22;4944;52.514;13.192;2023-09-08T13:29:30;33.30;89.40
9810;DHT22;4944;52.514;13.192;2023-09-08T13:31:58;33.30;90.00
9810;DHT22;4944;52.514;13.192;2023-09-08T13:34:25;33.40;90.60
9810;DHT22;4944;52.514;13.192;2023-09-08T13:36:52;33.50;90.20
9810;DHT22;4944;52.514;13.192;2023-09-08T13:39:19;33.50;89.80
9810;DHT22;4944;52.514;13.192;2023-09-08T13:41:51;33.70;89.00
9810;DHT22;4944;52.514;13.192;2023-09-08T13:44:18;33.70;89.90
9810;DHT22;4944;52.514;13.192;2023-09-08T13:46:46;33.60;88.30
9810;DHT22;4944;52.514;13.192;2023-09-08T13:49:15;33.80;88.60
9810;DHT22;4944;52.514;13.192;2023-09-08T13:51:42;33.90;87.00
9810;DHT22;4944;52.514;13.192;2023-09-08T13:54:09;33.90;87.30
9810;DHT22;4944;52.514;13.192;2023-09-08T13:56:38;34.10;88.10
9810;DHT22;4944;52.514;13.192;2023-09-08T13:59:06;34.20;88.00
9810;DHT22;4944;52.514;13.192;2023-09-08T14:01:33;34.30;87.60
9810;DHT22;4944;52.514;13.192;2023-09-08T14:04:00;34.50;85.50
9810;DHT22;4944;52.514;13.192;2023-09-08T14:06:28;34.50;85.40
9810;DHT22;4944;52.514;13.192;2023-09-08T14:08:55;34.50;86.50
9810;DHT22;4944;52.514;13.192;2023-09-08T14:11:22;34.50;87.20
9810;DHT22;4944;52.514;13.192;2023-09-08T14:13:49;34.60;86.90
9810;DHT22;4944;52.514;13.192;2023-09-08T14:16:17;34.70;85.70
9810;DHT22;4944;52.514;13.192;2023-09-08T14:18:44;34.80;84.50
9810;DHT22;4944;52.514;13.192;2023-09-08T14:21:11;34.80;85.20
9810;DHT22;4944;52.514;13.192;2023-09-08T14:23:40;34.70;84.30
9810;DHT22;4944;52.514;13.192;2023-09-08T14:26:07;34.80;84.20
9810;DHT22;4944;52.514;13.192;2023-09-08T14:28:34;34.70;83.60
9810;DHT22;4944;52.514;13.192;2023-09-08T14:31:02;34.80;83.80
9810;DHT22;4944;52.514;13.192;2023-09-08T14:33:29;34.80;84.70
9810;DHT22;4944;52.514;13.192;2023-09-08T14:35:56;34.80;85.00
9810;DHT22;4944;52.514;13.192;2023-09-08T14:38:23;34.80;84.40
9810;DHT22;4944;52.514;13.192;2023-09-08T14:40:56;34.80;84.30
9810;DHT22;4944;52.514;13.192;2023-09-08T14:43:23;34.80;83.60
9810;DHT22;4944;52.514;13.192;2023-09-08T14:45:50;34.80;83.20
9810;DHT22;4944;52.514;13.192;2023-09-08T14:48:18;34.80;82.90
9810;DHT22;4944;52.514;13.192;2023-09-08T14:50:45;34.80;82.00
9810;DHT22;4944;52.514;13.192;2023-09-08T14:53:12;34.70;83.70
9810;DHT22;4944;52.514;13.192;2023-09-08T14:55:39;34.70;84.30
9810;DHT22;4944;52.514;13.192;2023-09-08T14:58:07;34.70;83.20
9810;DHT22;4944;52.514;13.192;2023-09-08T15:00:34;34.70;82.80
9810;DHT22;4944;52.514;13.192;2023-09-08T15:03:01;34.80;82.90
9810;DHT22;4944;52.514;13.192;2023-09-08T15:05:30;34.80;83.20
9810;DHT22;4944;52.514;13.192;2023-09-08T15:07:57;34.90;82.60
9810;DHT22;4944;52.514;13.192;2023-09-08T15:10:23;34.80;81.70
9810;DHT22;4944;52.514;13.192;2023-09-08T15:12:50;34.80;83.10
9810;DHT22;4944;52.514;13.192;2023-09-08T15:15:18;34.80;82.30
9810;DHT22;4944;52.514;13.192;2023-09-08T15:17:49;34.80;82.80
9810;DHT22;4944;52.514;13.192;2023-09-08T15:20:16;34.80;82.90
9810;DHT22;4944;52.514;13.192;2023-09-08T15:22:43;34.70;82.20
9810;DHT22;4944;52.514;13.192;2023-09-08T15:25:10;34.60;82.30
9810;DHT22;4944;52.514;13.192;2023-09-08T15:27:37;34.50;83.00
9810;DHT22;4944;52.514;13.192;2023-09-08T15:30:05;34.50;82.70
9810;DHT22;4944;52.514;13.192;2023-09-08T15:32:34;34.30;82.00
9810;DHT22;4944;52.514;13.192;2023-09-08T15:35:01;34.20;82.60
9810;DHT22;4944;52.514;13.192;2023-09-08T15:37:29;34.10;83.40
9810;DHT22;4944;52.514;13.192;2023-09-08T15:39:55;34.00;82.70
9810;DHT22;4944;52.514;13.192;2023-09-08T15:42:22;33.90;83.00
9810;DHT22;4944;52.514;13.192;2023-09-08T15:44:49;33.80;82.80
9810;DHT22;4944;52.514;13.192;2023-09-08T15:47:17;33.70;83.80
9810;DHT22;4944;52.514;13.192;2023-09-08T15:49:46;33.60;83.80
9810;DHT22;4944;52.514;13.192;2023-09-08T15:52:13;33.50;83.20